Time;durP1;ratioP1;P1;durP2;ratioP2;P2;SDS_P1;SDS_P2;PMS_P1;PMS_P2;Temp;Humidity;BMP_temperature;BMP_pressure;BME280_temperature;BME280_humidity;BME280_pressure;Samples;Min_cycle;Max_cycle;Signal;HPM_P1;HPM_P2
2023/09/23 00:01:58;;;;;;;22.90;13.20;;;;;;;19.75;98.40;99743.73;106111;1262;98018;-82
2023/09/23 00:04:44;;;;;;;21.90;13.40;;;;;;;19.73;98.50;99743.88;106197;1262;101320;-82
2023/09/23 00:07:31;;;;;;;19.40;12.50;;;;;;;19.72;98.46;99736.80;105987;1262;99090;-80
2023/09/23 00:10:16;;;;;;;20.40;13.10;;;;;;;19.70;98.53;99733.65;105979;1262;99156;-81
2023/09/23 00:13:02;;;;;;;18.70;12.80;;;;;;;19.68;98.87;99737.83;106004;1262;99205;-81
2023/09/23 00:15:49;;;;;;;17.70;12.60;;;;;;;19.66;98.86;99731.46;105905;1267;98448;-82
2023/09/23 00:18:35;;;;;;;23.20;13.60;;;;;;;19.66;99.11;99726.73;106032;1261;101572;-82
2023/09/23 00:21:21;;;;;;;17.80;12.90;;;;;;;19.64;99.13;99724.77;106108;1267;100378;-81
2023/09/23 00:24:08;;;;;;;20.00;13.90;;;;;;;19.63;99.28;99725.37;106107;1262;97757;-81
2023/09/23 00:26:59;;;;;;;17.70;12.40;;;;;;;19.61;99.34;99720.14;106412;1261;97913;-82
2023/09/23 00:29:45;;;;;;;19.70;13.10;;;;;;;19.59;99.17;99726.39;106006;1262;98422;-82
2023/09/23 00:32:34;;;;;;;15.30;12.20;;;;;;;19.60;99.20;99729.54;106073;1262;102315;-80
2023/09/23 00:35:20;;;;;;;15.90;11.60;;;;;;;19.60;99.50;99724.21;105975;1262;99864;-82
2023/09/23 00:38:07;;;;;;;13.70;11.00;;;;;;;19.61;99.37;99716.18;105994;1262;98001;-81
2023/09/23 00:40:55;;;;;;;15.80;11.90;;;;;;;19.60;99.59;99703.09;106092;1262;97999;-81
2023/09/23 00:43:42;;;;;;;19.60;13.10;;;;;;;19.60;99.65;99697.88;106157;1266;97871;-82
2023/09/23 00:46:27;;;;;;;21.20;13.50;;;;;;;19.58;99.68;99697.48;106043;1262;101953;-82
2023/09/23 00:49:13;;;;;;;18.20;12.40;;;;;;;19.55;99.76;99693.34;106060;1262;99196;-81
2023/09/23 00:52:01;;;;;;;16.90;12.90;;;;;;;19.51;99.60;99694.80;105971;1262;97982;-81
2023/09/23 00:54:49;;;;;;;15.00;11.50;;;;;;;19.49;99.59;99697.49;106195;1262;97894;-81
2023/09/23 00:57:35;;;;;;;17.40;11.50;;;;;;;19.47;99.50;99702.66;107108;1262;98497;-81
2023/09/23 01:00:30;;;;;;;18.90;11.70;;;;;;;19.45;99.67;99712.58;105867;1262;102845;-80
2023/09/23 01:03:16;;;;;;;19.30;11.20;;;;;;;19.43;99.88;99715.73;105976;1262;100076;-81
2023/09/23 01:06:04;;;;;;;19.20;12.20;;;;;;;19.42;99.97;99711.88;105986;1262;98072;-81
2023/09/23 01:08:51;;;;;;;15.70;13.20;;;;;;;19.41;100.00;99720.39;106080;1266;98096;-81
2023/09/23 01:11:37;;;;;;;18.70;12.20;;;;;;;19.41;100.00;99714.68;106911;1261;97984;-81
2023/09/23 01:14:22;;;;;;;18.60;11.70;;;;;;;19.41;100.00;99705.61;106019;1262;101392;-81
2023/09/23 01:17:10;;;;;;;19.70;12.30;;;;;;;19.41;100.00;99706.70;106093;1262;100438;-81
2023/09/23 01:19:56;;;;;;;17.60;12.00;;;;;;;19.40;100.00;99708.17;105931;1261;99059;-81
2023/09/23 01:22:47;;;;;;;18.50;12.10;;;;;;;19.41;100.00;99720.40;106045;1262;97899;-81
2023/09/23 01:25:36;;;;;;;15.70;11.90;;;;;;;19.40;100.00;99724.89;106149;1265;98101;-81
2023/09/23 01:28:22;;;;;;;19.00;11.30;;;;;;;19.39;100.00;99731.24;106045;1267;102613;-81
2023/09/23 01:31:08;;;;;;;14.20;11.80;;;;;;;19.39;100.00;99730.59;106043;1262;100566;-82
2023/09/23 01:33:55;;;;;;;18.20;11.30;;;;;;;19.39;100.00;99732.59;105946;1266;98306;-82
2023/09/23 01:36:41;;;;;;;17.60;11.80;;;;;;;19.38;100.00;99736.89;106010;1262;97895;-81
2023/09/23 01:39:28;;;;;;;15.80;10.90;;;;;;;19.38;100.00;99738.89;106003;1266;97875;-81
2023/09/23 01:42:14;;;;;;;17.20;12.70;;;;;;;19.38;100.00;99738.52;105974;1267;102035;-81
2023/09/23 01:44:59;;;;;;;15.40;11.30;;;;;;;19.39;100.00;99739.61;105933;1262;100993;-81
2023/09/23 01:47:46;;;;;;;19.10;11.50;;;;;;;19.39;100.00;99734.23;106117;1262;98153;-81
2023/09/23 01:50:31;;;;;;;18.40;11.10;;;;;;;19.38;100.00;99737.27;106138;1262;97936;-81
2023/09/23 01:53:21;;;;;;;15.80;11.60;;;;;;;19.37;100.00;99749.66;105964;1262;97926;-81
2023/09/23 01:56:09;;;;;;;14.60;10.60;;;;;;;19.35;100.00;99758.16;106068;1266;101768;-81
2023/09/23 01:58:54;;;;;;;17.70;10.70;;;;;;;19.34;100.00;99760.83;105975;1262;99144;-82
2023/09/23 02:01:41;;;;;;;17.60;10.80;;;;;;;19.34;100.00;99761.16;105885;1267;99598;-82
2023/09/23 02:04:26;;;;;;;12.30;9.70;;;;;;;19.36;100.00;99763.17;106053;1266;98035;-82
2023/09/23 02:07:13;;;;;;;13.70;10.30;;;;;;;19.36;100.00;99761.70;105989;1262;97929;-80
2023/09/23 02:10:00;;;;;;;13.60;9.70;;;;;;;19.36;100.00;99770.18;106150;1263;102087;-81
2023/09/23 02:12:45;;;;;;;17.50;10.90;;;;;;;19.35;100.00;99760.73;105946;1266;99840;-81
2023/09/23 02:15:30;;;;;;;13.80;9.70;;;;;;;19.35;100.00;99758.70;106180;1262;98732;-81
2023/09/23 02:18:16;;;;;;;12.10;10.20;;;;;;;19.34;100.00;99768.43;106096;1262;97871;-81
2023/09/23 02:21:02;;;;;;;12.40;10.10;;;;;;;19.33;100.00;99766.23;106153;1266;97874;-81
2023/09/23 02:23:48;;;;;;;14.00;9.70;;;;;;;19.33;100.00;99762.58;106049;1267;102395;-81
2023/09/23 02:26:34;;;;;;;14.40;10.70;;;;;;;19.32;100.00;99758.87;106029;1262;100413;-81
2023/09/23 02:29:22;;;;;;;11.10;10.00;;;;;;;19.30;100.00;99759.79;106119;1266;97938;-80
2023/09/23 02:32:07;;;;;;;14.70;11.00;;;;;;;19.27;100.00;99765.48;106047;1262;97927;-81
2023/09/23 02:34:53;;;;;;;13.60;10.30;;;;;;;19.25;100.00;99768.95;106020;1262;97896;-81
2023/09/23 02:37:40;;;;;;;17.50;10.30;;;;;;;19.23;100.00;99767.92;106209;1263;101450;-81
2023/09/23 02:40:27;;;;;;;13.20;10.40;;;;;;;19.22;100.00;99770.56;105980;1262;99228;-81
2023/09/23 02:43:14;;;;;;;15.70;10.10;;;;;;;19.21;100.00;99773.75;106006;1262;98473;-81
2023/09/23 02:46:01;;;;;;;15.80;10.30;;;;;;;19.20;100.00;99777.12;105955;1262;97893;-81
2023/09/23 02:48:47;;;;;;;16.50;10.50;;;;;;;19.19;100.00;99781.67;106282;1263;97771;-81
2023/09/23 02:51:32;;;;;;;15.10;10.30;;;;;;;19.19;100.00;99782.27;106848;1265;101384;-80
2023/09/23 02:54:18;;;;;;;19.50;11.10;;;;;;;19.17;100.00;99780.58;106158;1266;99157;-81
2023/09/23 02:57:03;;;;;;;17.40;11.70;;;;;;;19.15;100.00;99782.25;106019;1262;98377;-81
2023/09/23 02:59:56;;;;;;;17.20;12.60;;;;;;;19.13;100.00;99776.05;105996;1267;98049;-81
2023/09/23 03:02:45;;;;;;;21.00;13.60;;;;;;;19.12;100.00;99771.15;106032;1262;97999;-80
2023/09/23 03:05:31;;;;;;;21.10;14.70;;;;;;;19.13;100.00;99773.81;106018;1266;102672;-81
2023/09/23 03:08:19;;;;;;;17.50;15.20;;;;;;;19.13;100.00;99778.70;106030;1262;99211;-81
2023/09/23 03:11:09;;;;;;;17.60;15.40;;;;;;;19.12;100.00;99782.83;106106;1262;97872;-81
2023/09/23 03:13:55;;;;;;;21.10;17.10;;;;;;;19.09;100.00;99789.88;106182;1266;97957;-82
2023/09/23 03:16:44;;;;;;;22.70;15.90;;;;;;;19.07;100.00;99789.27;105996;1262;98479;-81
2023/09/23 03:19:34;;;;;;;19.60;16.30;;;;;;;19.03;100.00;99791.13;105977;1266;101524;-81
2023/09/23 03:22:21;;;;;;;17.60;14.60;;;;;;;19.01;100.00;99798.34;106376;1265;99178;-83
2023/09/23 03:25:07;;;;;;;18.30;14.80;;;;;;;18.97;100.00;99807.31;105799;1267;98569;-82
2023/09/23 03:27:53;;;;;;;15.30;13.70;;;;;;;18.90;100.00;99812.15;105865;1265;97894;-83
2023/09/23 03:30:38;;;;;;;18.10;13.10;;;;;;;18.81;100.00;99804.75;105990;1266;98139;-82
2023/09/23 03:33:24;;;;;;;18.00;13.60;;;;;;;18.76;100.00;99803.29;106000;1260;102211;-81
2023/09/23 03:36:16;;;;;;;14.60;12.70;;;;;;;18.70;100.00;99808.63;106016;1262;99319;-82
2023/09/23 03:39:01;;;;;;;14.20;11.10;;;;;;;18.62;100.00;99809.73;105939;1262;98995;-83
2023/09/23 03:41:48;;;;;;;13.60;10.40;;;;;;;18.53;100.00;99817.52;105994;1267;97996;-81
2023/09/23 03:44:35;;;;;;;14.40;9.50;;;;;;;18.47;100.00;99813.25;105987;1267;98461;-81
2023/09/23 03:47:22;;;;;;;10.80;8.50;;;;;;;18.41;100.00;99813.27;105872;1265;101433;-81
2023/09/23 03:50:08;;;;;;;9.10;7.20;;;;;;;18.36;100.00;99817.92;105912;1267;99210;-81
2023/09/23 03:52:53;;;;;;;9.40;7.60;;;;;;;18.29;100.00;99823.60;105935;1262;99574;-81
2023/09/23 03:55:39;;;;;;;9.40;7.70;;;;;;;18.21;100.00;99827.05;105983;1262;97967;-81
2023/09/23 03:58:25;;;;;;;11.20;7.70;;;;;;;18.15;100.00;99828.39;105958;1265;97933;-82
2023/09/23 04:01:13;;;;;;;8.80;7.20;;;;;;;18.10;100.00;99839.66;105987;1263;110636;-83
2023/09/23 04:04:01;;;;;;;10.10;8.30;;;;;;;18.07;100.00;99842.87;105872;1262;99107;-80
2023/09/23 04:06:47;;;;;;;9.70;8.20;;;;;;;18.01;100.00;99847.53;105894;1261;98041;-81
2023/09/23 04:09:33;;;;;;;12.10;9.40;;;;;;;17.98;100.00;99845.71;105896;1262;99162;-81
2023/09/23 04:12:19;;;;;;;15.00;8.90;;;;;;;17.96;100.00;99842.86;105981;1262;100045;-82
2023/09/23 04:15:07;;;;;;;13.50;8.50;;;;;;;17.96;100.00;99842.10;105989;1262;101359;-81
2023/09/23 04:17:53;;;;;;;13.30;8.80;;;;;;;17.96;100.00;99842.82;105872;1262;99135;-82
2023/09/23 04:20:38;;;;;;;11.00;9.10;;;;;;;17.96;100.00;99846.01;105890;1265;97962;-82
2023/09/23 04:23:24;;;;;;;10.90;9.80;;;;;;;17.93;100.00;99856.33;105894;1262;97972;-82
2023/09/23 04:26:12;;;;;;;13.30;10.60;;;;;;;17.91;100.00;99868.65;106084;1262;97974;-82
2023/09/23 04:28:58;;;;;;;12.60;11.20;;;;;;;17.89;100.00;99875.98;105910;1266;103051;-81
2023/09/23 04:31:44;;;;;;;14.30;12.80;;;;;;;17.86;100.00;99881.25;105862;1262;100361;-82
2023/09/23 04:34:35;;;;;;;12.10;10.90;;;;;;;17.84;100.00;99875.13;106021;1262;106378;-80
2023/09/23 04:37:20;;;;;;;12.30;11.10;;;;;;;17.83;100.00;99875.53;105884;1262;98934;-81
2023/09/23 04:40:11;;;;;;;13.70;11.50;;;;;;;17.82;100.00;99894.38;105918;1262;97980;-82
2023/09/23 04:42:57;;;;;;;13.70;10.20;;;;;;;17.81;100.00;99907.80;105930;1262;101305;-82
2023/09/23 04:45:42;;;;;;;12.50;10.40;;;;;;;17.83;100.00;99917.85;105908;1265;100533;-82
2023/09/23 04:48:30;;;;;;;10.90;8.90;;;;;;;17.84;100.00;99926.64;105894;1267;97953;-82
2023/09/23 04:51:17;;;;;;;12.10;9.90;;;;;;;17.84;100.00;99934.06;105740;1262;98044;-81
2023/09/23 04:54:03;;;;;;;10.60;8.60;;;;;;;17.85;100.00;99929.52;106097;1265;97852;-81
2023/09/23 04:56:48;;;;;;;9.70;8.80;;;;;;;17.87;100.00;99922.52;105979;1267;101426;-80
2023/09/23 04:59:34;;;;;;;9.50;8.50;;;;;;;17.90;100.00;99933.88;106019;1262;100490;-81
2023/09/23 05:02:20;;;;;;;8.90;7.80;;;;;;;17.90;100.00;99951.05;105853;1266;106470;-82
2023/09/23 05:05:09;;;;;;;9.30;8.30;;;;;;;17.89;100.00;99959.29;105847;1268;97896;-82
2023/09/23 05:07:55;;;;;;;8.60;6.30;;;;;;;17.88;100.00;99958.56;105908;1262;98383;-81
2023/09/23 05:10:41;;;;;;;7.40;6.50;;;;;;;17.84;100.00;99961.59;105679;1266;101455;-81
2023/09/23 05:13:29;;;;;;;8.70;6.20;;;;;;;17.78;100.00;99965.73;105908;1262;99320;-82
2023/09/23 05:16:15;;;;;;;10.60;8.40;;;;;;;17.74;100.00;99968.98;105858;1267;97879;-81
2023/09/23 05:19:00;;;;;;;13.10;10.40;;;;;;;17.74;100.00;99971.73;106025;1259;98121;-82
2023/09/23 05:21:46;;;;;;;8.80;7.10;;;;;;;17.73;100.00;99975.20;106193;1262;97913;-81
2023/09/23 05:24:32;;;;;;;7.60;6.90;;;;;;;17.68;100.00;99983.54;106101;1259;101404;-82
2023/09/23 05:27:17;;;;;;;7.40;5.60;;;;;;;17.65;100.00;99985.38;106200;1259;99222;-81
2023/09/23 05:30:05;;;;;;;5.50;5.00;;;;;;;17.63;100.00;99983.61;106108;1259;98969;-82
2023/09/23 05:32:50;;;;;;;5.30;4.90;;;;;;;17.61;100.00;99983.68;106071;1263;97999;-82
2023/09/23 05:35:38;;;;;;;5.10;4.60;;;;;;;17.60;100.00;99987.83;106094;1263;97955;-82
2023/09/23 05:38:23;;;;;;;5.80;4.30;;;;;;;17.57;100.00;99978.70;106136;1263;101340;-82
2023/09/23 05:41:09;;;;;;;4.30;3.90;;;;;;;17.55;100.00;99979.00;106236;1259;99143;-81
2023/09/23 05:43:54;;;;;;;5.10;4.10;;;;;;;17.56;100.00;99991.77;106152;1259;98401;-80
2023/09/23 05:46:42;;;;;;;4.90;4.40;;;;;;;17.54;100.00;99998.08;106102;1263;98018;-80
2023/09/23 05:49:27;;;;;;;5.30;4.30;;;;;;;17.52;100.00;100000.27;106391;1259;97904;-82
2023/09/23 05:52:14;;;;;;;5.70;4.30;;;;;;;17.52;100.00;99993.33;106015;1259;111077;-82
2023/09/23 05:55:00;;;;;;;5.70;4.40;;;;;;;17.54;100.00;99990.82;106314;1259;99159;-82
2023/09/23 05:57:46;;;;;;;5.10;4.60;;;;;;;17.53;100.00;99992.64;106254;1259;98454;-82
2023/09/23 06:00:31;;;;;;;5.50;4.90;;;;;;;17.53;100.00;100002.34;106276;1265;97967;-82
2023/09/23 06:03:17;;;;;;;6.60;4.50;;;;;;;17.58;100.00;100018.68;106546;1259;98477;-80
2023/09/23 06:06:03;;;;;;;4.60;4.10;;;;;;;17.62;100.00;100038.04;106134;1259;101349;-81
2023/09/23 06:08:50;;;;;;;5.20;4.10;;;;;;;17.62;100.00;100056.29;106147;1259;99220;-81
2023/09/23 06:11:37;;;;;;;4.50;4.10;;;;;;;17.60;100.00;100057.39;106287;1264;99008;-81
2023/09/23 06:14:25;;;;;;;4.40;4.00;;;;;;;17.56;100.00;100070.16;106188;1259;98841;-81
2023/09/23 06:17:10;;;;;;;4.60;3.50;;;;;;;17.54;100.00;100080.02;106224;1263;98697;-82
2023/09/23 06:19:56;;;;;;;4.30;3.90;;;;;;;17.55;100.00;100087.27;106174;1263;101411;-81
2023/09/23 06:22:42;;;;;;;6.70;3.80;;;;;;;17.57;100.00;100097.91;106114;1259;107852;-81
2023/09/23 06:25:27;;;;;;;4.90;4.40;;;;;;;17.59;100.00;100097.65;106141;1259;97911;-81
2023/09/23 06:28:16;;;;;;;5.20;3.70;;;;;;;17.59;100.00;100090.73;106336;1263;98054;-89
2023/09/23 06:31:06;;;;;;;4.20;3.60;;;;;;;17.55;100.00;100086.07;106239;1258;98009;-87
2023/09/23 06:33:53;;;;;;;4.60;4.10;;;;;;;17.53;100.00;100094.91;106251;1259;102972;-86
2023/09/23 06:36:39;;;;;;;4.20;3.80;;;;;;;17.50;100.00;100102.98;106117;1258;99183;-87
2023/09/23 06:39:25;;;;;;;4.00;3.70;;;;;;;17.49;100.00;100105.92;106125;1265;97904;-87
2023/09/23 06:42:11;;;;;;;4.10;3.70;;;;;;;17.44;100.00;100110.48;106010;1264;97872;-86
2023/09/23 06:44:58;;;;;;;4.50;4.10;;;;;;;17.39;100.00;100109.24;106101;1259;98027;-87
2023/09/23 06:51:00;;;;;;;3.70;3.40;;;;;;;17.33;100.00;100107.30;106632;1261;101072;-88
2023/09/23 06:53:47;;;;;;;4.20;3.80;;;;;;;17.38;100.00;100109.81;106419;1261;99087;-90
2023/09/23 06:56:34;;;;;;;4.90;3.70;;;;;;;17.42;100.00;100116.77;106655;1262;96531;-88
2023/09/23 06:59:21;;;;;;;3.90;3.60;;;;;;;17.43;100.00;100127.11;106356;1261;97146;-88
2023/09/23 07:02:07;;;;;;;4.40;3.30;;;;;;;17.46;100.00;100138.51;106495;1267;101477;-88
2023/09/23 07:04:53;;;;;;;3.80;3.40;;;;;;;17.49;100.00;100145.95;106183;1262;109116;-88
2023/09/23 07:07:39;;;;;;;3.60;3.30;;;;;;;17.50;100.00;100151.05;106107;1261;98933;-86
2023/09/23 07:10:24;;;;;;;3.80;3.40;;;;;;;17.51;100.00;100149.25;106390;1261;98008;-87
2023/09/23 07:13:10;;;;;;;3.40;3.10;;;;;;;17.54;100.00;100150.55;106223;1260;98076;-88
2023/09/23 07:15:55;;;;;;;3.10;2.80;;;;;;;17.59;100.00;100150.60;106910;1260;101444;-88
2023/09/23 07:18:44;;;;;;;2.70;2.50;;;;;;;17.63;100.00;100157.39;107534;1261;99961;-89
2023/09/23 07:21:29;;;;;;;3.20;2.90;;;;;;;17.64;100.00;100159.45;106919;1261;98050;-87
2023/09/23 07:24:15;;;;;;;2.90;2.60;;;;;;;17.63;100.00;100173.73;107601;1262;97803;-86
2023/09/23 07:27:01;;;;;;;3.40;3.10;;;;;;;17.60;100.00;100192.05;106801;1262;97984;-86
2023/09/23 07:29:47;;;;;;;3.00;2.40;;;;;;;17.59;100.00;100194.53;106704;1261;101438;-86
2023/09/23 07:32:33;;;;;;;3.30;2.90;;;;;;;17.60;100.00;100205.21;107521;1262;109153;-88
2023/09/23 07:35:20;;;;;;;3.00;2.50;;;;;;;17.61;100.00;100214.44;106588;1261;97827;-85
2023/09/23 07:38:06;;;;;;;3.00;2.70;;;;;;;17.60;100.00;100219.71;106227;1266;97898;-88
2023/09/23 07:40:53;;;;;;;2.70;2.30;;;;;;;17.59;100.00;100211.68;106172;1268;98507;-84
2023/09/23 07:43:39;;;;;;;4.10;2.60;;;;;;;17.60;100.00;100200.66;105705;1260;101428;-85
2023/09/23 07:46:25;;;;;;;2.50;2.20;;;;;;;17.62;100.00;100201.08;105548;1262;100347;-85
2023/09/23 07:49:11;;;;;;;3.60;2.50;;;;;;;17.64;100.00;100210.96;105719;1262;99129;-84
2023/09/23 07:51:58;;;;;;;3.20;2.80;;;;;;;17.63;100.00;100222.02;105413;1270;97994;-84
2023/09/23 07:54:44;;;;;;;4.00;2.80;;;;;;;17.62;100.00;100222.20;106865;1263;98390;-92
2023/09/23 07:57:32;;;;;;;3.20;3.00;;;;;;;17.64;100.00;100226.95;106062;1263;101948;-83
2023/09/23 08:00:19;;;;;;;3.50;3.20;;;;;;;17.65;100.00;100230.23;106136;1262;101409;-87
2023/09/23 08:03:04;;;;;;;5.10;3.50;;;;;;;17.68;100.00;100220.55;106231;1261;98766;-89
2023/09/23 08:05:50;;;;;;;3.20;3.00;;;;;;;17.70;100.00;100210.67;105649;1267;97997;-86
2023/09/23 08:08:36;;;;;;;3.20;2.90;;;;;;;17.72;100.00;100225.59;106044;1260;98023;-88
2023/09/23 08:11:22;;;;;;;3.40;3.10;;;;;;;17.71;100.00;100240.52;106407;1261;102200;-90
2023/09/23 08:14:08;;;;;;;3.60;3.30;;;;;;;17.70;100.00;100249.17;106845;1262;100126;-91
2023/09/23 08:16:53;;;;;;;3.20;2.90;;;;;;;17.72;100.00;100246.08;106549;1269;107614;-88
2023/09/23 08:19:39;;;;;;;5.40;3.60;;;;;;;17.75;100.00;100237.23;106441;1261;97907;-90
2023/09/23 08:22:24;;;;;;;4.30;3.10;;;;;;;17.77;100.00;100233.16;106597;1267;97998;-87
2023/09/23 08:25:11;;;;;;;3.90;3.50;;;;;;;17.77;100.00;100241.12;106115;1265;101504;-87
2023/09/23 08:27:58;;;;;;;4.00;3.50;;;;;;;17.75;100.00;100260.52;105904;1261;100400;-88
2023/09/23 08:30:44;;;;;;;4.60;4.10;;;;;;;17.74;100.00;100277.76;105858;1269;98684;-89
2023/09/23 08:33:32;;;;;;;3.90;3.60;;;;;;;17.72;100.00;100290.02;106522;1267;98013;-89
2023/09/23 08:36:18;;;;;;;4.90;4.10;;;;;;;17.69;100.00;100298.84;106637;1262;98004;-91
2023/09/23 08:39:05;;;;;;;3.50;3.20;;;;;;;17.68;100.00;100300.61;106401;1262;111103;-85
2023/09/23 08:41:59;;;;;;;4.90;3.40;;;;;;;17.69;100.00;100292.29;106024;1269;100290;-86
2023/09/23 08:44:45;;;;;;;3.30;3.00;;;;;;;17.71;100.00;100285.61;106697;1261;97874;-92
2023/09/23 08:47:32;;;;;;;4.90;4.40;;;;;;;17.77;100.00;100296.88;105816;1267;98038;-86
2023/09/23 08:50:27;;;;;;;6.20;3.90;;;;;;;17.83;100.00;100300.25;106448;1263;97984;-91
2023/09/23 08:53:17;;;;;;;6.10;3.70;;;;;;;17.92;100.00;100291.16;105869;1261;102504;-88
2023/09/23 09:02:30;;;;;;;2.30;2.10;;;;;;;18.10;100.00;100279.63;106796;1259;98416;-91
2023/09/23 09:05:15;;;;;;;3.60;2.00;;;;;;;18.12;100.00;100274.85;106593;1260;98466;-87
2023/09/23 09:08:01;;;;;;;2.40;2.20;;;;;;;18.18;100.00;100272.08;106319;1261;102510;-87
2023/09/23 09:11:06;;;;;;;2.00;1.70;;;;;;;18.23;100.00;100277.39;106305;1259;101142;-89
2023/09/23 09:13:52;;;;;;;2.00;1.50;;;;;;;18.27;100.00;100287.31;106305;1259;99137;-87
2023/09/23 09:16:39;;;;;;;1.90;1.70;;;;;;;18.32;100.00;100296.78;106239;1261;97890;-87
2023/09/23 09:19:26;;;;;;;2.50;2.10;;;;;;;18.38;100.00;100297.61;106235;1263;97892;-85
2023/09/23 09:22:14;;;;;;;2.50;2.20;;;;;;;18.42;100.00;100301.90;106546;1259;101439;-88
2023/09/23 09:25:03;;;;;;;2.90;2.60;;;;;;;18.43;100.00;100299.66;106710;1262;99953;-91
2023/09/23 09:31:09;;;;;;;2.70;2.50;;;;;;;18.52;100.00;100289.95;106698;1265;98019;-86
2023/09/23 09:33:56;;;;;;;2.60;2.30;;;;;;;18.56;100.00;100296.75;106384;1261;98470;-88
2023/09/23 09:36:42;;;;;;;2.60;2.40;;;;;;;18.59;100.00;100297.89;106414;1262;101432;-89
2023/09/23 09:39:34;;;;;;;3.00;2.80;;;;;;;18.66;100.00;100295.88;106218;1260;100743;-85
2023/09/23 09:42:26;;;;;;;2.50;2.30;;;;;;;18.74;100.00;100301.55;106291;1265;98054;-88
2023/09/23 09:48:15;;;;;;;2.80;2.50;;;;;;;18.96;99.88;100320.36;106359;1263;97962;-86
2023/09/23 09:51:02;;;;;;;3.40;3.10;;;;;;;19.03;99.24;100325.95;106623;1262;102715;-83
2023/09/23 09:53:48;;;;;;;3.60;3.10;;;;;;;19.12;99.23;100324.98;105962;1260;100601;-81
2023/09/23 09:56:35;;;;;;;2.60;2.40;;;;;;;19.17;98.06;100317.58;106301;1259;97975;-81
2023/09/23 09:59:28;;;;;;;3.30;2.20;;;;;;;19.19;97.60;100329.28;106124;1263;97959;-81
2023/09/23 10:02:14;;;;;;;1.80;1.70;;;;;;;19.18;96.75;100333.08;106155;1261;97897;-80
2023/09/23 10:05:05;;;;;;;1.20;1.00;;;;;;;19.17;96.37;100327.20;106297;1263;101408;-81
2023/09/23 10:07:54;;;;;;;1.40;1.30;;;;;;;19.16;96.04;100323.97;106183;1263;99138;-80
2023/09/23 10:10:47;;;;;;;1.30;1.20;;;;;;;19.14;95.86;100324.27;105998;1263;98367;-81
2023/09/23 10:13:33;;;;;;;1.20;1.10;;;;;;;19.13;95.79;100330.83;105990;1263;95901;-81
2023/09/23 10:16:27;;;;;;;3.10;1.50;;;;;;;19.12;95.88;100336.35;106069;1263;97888;-81
2023/09/23 10:19:13;;;;;;;2.50;1.40;;;;;;;19.11;95.83;100335.19;106066;1259;102645;-81
2023/09/23 10:22:17;;;;;;;1.90;1.70;;;;;;;19.11;95.58;100335.30;106166;1259;99267;-82
2023/09/23 10:25:06;;;;;;;2.60;1.30;;;;;;;19.13;95.86;100330.98;106086;1264;99086;-80
2023/09/23 10:27:56;;;;;;;1.60;1.10;;;;;;;19.16;95.70;100329.08;106031;1259;97979;-80
2023/09/23 10:30:42;;;;;;;1.90;1.40;;;;;;;19.16;95.24;100331.58;106150;1263;99558;-82
2023/09/23 10:33:30;;;;;;;2.70;1.40;;;;;;;19.16;95.05;100332.06;106376;1263;102040;-81
2023/09/23 10:36:19;;;;;;;1.90;1.30;;;;;;;19.14;94.87;100330.56;107659;1259;99136;-81
2023/09/23 10:39:15;;;;;;;1.40;1.00;;;;;;;19.10;94.20;100333.23;107086;1259;98562;-80
2023/09/23 10:42:00;;;;;;;1.70;1.10;;;;;;;19.08;93.63;100341.01;107037;1259;97971;-80
2023/09/23 10:44:47;;;;;;;1.50;0.90;;;;;;;19.03;93.47;100345.50;106226;1259;98483;-81
2023/09/23 10:47:35;;;;;;;1.80;1.10;;;;;;;19.00;92.60;100355.06;106023;1264;102323;-80
2023/09/23 10:50:21;;;;;;;1.30;1.20;;;;;;;18.99;92.00;100363.89;106112;1264;100561;-80
2023/09/23 10:53:07;;;;;;;0.90;0.70;;;;;;;18.98;91.61;100370.55;105473;1264;97964;-82
2023/09/23 10:55:55;;;;;;;2.30;1.00;;;;;;;18.99;91.67;100374.20;105357;1261;97977;-80
2023/09/23 10:58:41;;;;;;;1.70;0.90;;;;;;;19.02;91.36;100366.91;105429;1260;97723;-80
2023/09/23 11:01:26;;;;;;;2.10;1.10;;;;;;;19.04;91.18;100366.52;105566;1263;101355;-80
2023/09/23 11:04:12;;;;;;;1.40;1.20;;;;;;;19.03;91.13;100365.91;105500;1259;99096;-80
2023/09/23 11:06:57;;;;;;;1.30;1.20;;;;;;;19.03;91.01;100366.38;105541;1260;98470;-79
2023/09/23 11:09:46;;;;;;;1.80;1.10;;;;;;;19.03;91.38;100374.70;105491;1263;98000;-79
2023/09/23 11:12:33;;;;;;;1.60;1.10;;;;;;;19.02;90.65;100378.70;105553;1263;98651;-80
2023/09/23 11:15:19;;;;;;;3.70;0.90;;;;;;;19.01;90.44;100379.17;105437;1262;101491;-80
2023/09/23 11:18:08;;;;;;;1.30;0.80;;;;;;;19.01;90.08;100386.67;105509;1261;100461;-78
2023/09/23 11:20:53;;;;;;;1.60;1.30;;;;;;;19.02;90.30;100393.05;105550;1263;98405;-79
2023/09/23 11:23:39;;;;;;;1.90;0.90;;;;;;;19.04;90.14;100398.61;105359;1263;97779;-79
2023/09/23 11:26:26;;;;;;;4.40;1.30;;;;;;;19.03;90.25;100397.19;105443;1262;98537;-78
2023/09/23 11:29:11;;;;;;;1.80;1.20;;;;;;;19.05;90.27;100392.34;105482;1263;101463;-80
2023/09/23 11:31:57;;;;;;;1.30;1.20;;;;;;;19.10;90.46;100389.75;106140;1262;100577;-86
2023/09/23 11:34:43;;;;;;;2.10;1.60;;;;;;;19.14;90.62;100392.91;105822;1265;98540;-84
2023/09/23 11:37:28;;;;;;;3.20;1.20;;;;;;;19.17;90.32;100395.23;106234;1262;97998;-91
2023/09/23 11:40:15;;;;;;;1.30;1.20;;;;;;;19.17;90.06;100395.08;106731;1264;98379;-91
2023/09/23 11:43:03;;;;;;;2.60;1.60;;;;;;;19.16;89.73;100392.02;106498;1261;102703;-89
2023/09/23 11:45:58;;;;;;;2.50;1.50;;;;;;;19.17;90.26;100391.83;106562;1265;100472;-91
2023/09/23 11:48:48;;;;;;;2.10;1.90;;;;;;;19.21;90.45;100396.55;106669;1260;98886;-90
2023/09/23 11:51:41;;;;;;;2.30;2.10;;;;;;;19.28;91.08;100399.91;106673;1259;97982;-94
2023/09/23 11:54:47;;;;;;;4.80;2.60;;;;;;;19.34;90.47;100396.61;106887;1259;97892;-91
2023/09/23 11:57:33;;;;;;;2.80;2.30;;;;;;;19.40;90.48;100392.30;106172;1259;101414;-88
2023/09/23 12:00:38;;;;;;;2.80;2.60;;;;;;;19.46;90.93;100393.33;106313;1259;100607;-90
2023/09/23 12:03:25;;;;;;;4.70;3.20;;;;;;;19.50;90.40;100391.81;106229;1264;98859;-89
2023/09/23 12:06:20;;;;;;;5.90;3.40;;;;;;;19.52;90.11;100388.31;106750;1259;97966;-94
2023/09/23 12:09:09;;;;;;;3.80;2.80;;;;;;;19.57;90.22;100394.24;106650;1259;98390;-91
2023/09/23 12:12:06;;;;;;;5.10;2.80;;;;;;;19.61;90.39;100400.23;106558;1267;101258;-93
2023/09/23 12:14:53;;;;;;;4.50;2.90;;;;;;;19.65;90.41;100402.41;106055;1259;99077;-87
2023/09/23 12:17:39;;;;;;;4.60;3.20;;;;;;;19.69;90.58;100406.27;106862;1259;98064;-90
2023/09/23 12:20:26;;;;;;;3.80;2.40;;;;;;;19.70;90.68;100406.13;106158;1264;98772;-87
2023/09/23 12:23:22;;;;;;;2.50;1.50;;;;;;;19.71;90.30;100413.79;106343;1259;98588;-89
2023/09/23 12:26:09;;;;;;;5.20;2.00;;;;;;;19.67;89.65;100413.45;106569;1264;102139;-85
2023/09/23 12:28:55;;;;;;;8.00;4.60;;;;;;;19.63;89.55;100412.69;106549;1259;101310;-87
2023/09/23 12:31:42;;;;;;;3.00;2.10;;;;;;;19.60;89.82;100415.05;106410;1259;99166;-91
2023/09/23 12:34:28;;;;;;;2.50;2.30;;;;;;;19.57;89.76;100416.69;106297;1259;98068;-87
2023/09/23 12:37:15;;;;;;;3.60;1.90;;;;;;;19.58;90.30;100416.54;105856;1264;97971;-85
2023/09/23 12:40:04;;;;;;;6.60;3.10;;;;;;;19.54;90.02;100419.47;106105;1263;101394;-85
2023/09/23 12:42:51;;;;;;;3.50;1.90;;;;;;;19.53;90.21;100426.14;106055;1259;100358;-91
2023/09/23 12:45:40;;;;;;;2.40;1.90;;;;;;;19.54;89.94;100425.55;106593;1259;99111;-88
2023/09/23 12:48:27;;;;;;;1.80;1.60;;;;;;;19.52;90.23;100429.87;106344;1263;97980;-87
2023/09/23 12:51:15;;;;;;;1.50;1.40;;;;;;;19.52;90.27;100432.97;106049;1259;98393;-85
2023/09/23 12:54:00;;;;;;;2.30;2.10;;;;;;;19.50;90.15;100433.31;106445;1264;101610;-86